Time;durP1;ratioP1;P1;durP2;ratioP2;P2;SDS_P1;SDS_P2;PMS_P1;PMS_P2;Temp;Humidity;BMP_temperature;BMP_pressure;BME280_temperature;BME280_humidity;BME280_pressure;Samples;Min_cycle;Max_cycle;Signal;HPM_P1;HPM_P2
2022/06/04 00:00:43;;;;;;;;;;;;;;;30.68;24.58;101603.37;4287725;33;20506;-70
2022/06/04 00:03:28;;;;;;;;;;;;;;;30.95;24.04;101599.13;4287740;33;19991;-70
2022/06/04 00:06:12;;;;;;;;;;;;;;;30.61;24.42;101590.28;4290266;33;20253;-70
2022/06/04 00:09:04;;;;;;;;;;;;;;;30.81;24.21;101580.91;4274705;33;20369;-70
2022/06/04 00:15:41;;;;;;;;;;;;;;;30.43;24.58;101570.84;4258528;33;20546;-70
2022/06/04 00:18:14;;;;;;;;;;;;;;;30.95;24.16;101578.75;4260615;33;19971;-70
2022/06/04 00:20:59;;;;;;;;;;;;;;;30.66;24.27;101583.59;4279576;33;20072;-70
2022/06/04 00:23:43;;;;;;;;;;;;;;;30.63;24.48;101589.72;4290153;33;20409;-70
2022/06/04 00:26:27;;;;;;;;;;;;;;;30.73;24.34;101590.84;4289894;33;19995;-70
2022/06/04 00:29:30;;;;;;;;;;;;;;;30.52;24.47;101582.03;4251779;33;20626;-70
2022/06/04 00:32:16;;;;;;;;;;;;;;;30.84;24.19;101591.41;4250937;33;20566;-70
2022/06/04 00:35:02;;;;;;;;;;;;;;;30.56;24.49;101590.41;4250125;33;20347;-70
2022/06/04 00:37:48;;;;;;;;;;;;;;;29.61;25.92;101589.69;4268671;33;20357;-70
2022/06/04 00:40:46;;;;;;;;;;;;;;;30.40;24.90;101588.63;4281620;33;19969;-70
2022/06/04 00:43:31;;;;;;;;;;;;;;;30.43;24.54;101591.19;4279639;33;20022;-69
2022/06/04 00:46:35;;;;;;;;;;;;;;;30.18;24.96;101591.91;4284177;33;20386;-69
2022/06/04 00:49:19;;;;;;;;;;;;;;;30.57;24.40;101589.84;4287576;33;19960;-69
2022/06/04 00:52:05;;;;;;;;;;;;;;;30.60;24.33;101585.03;4312635;33;19970;-70
2022/06/04 00:54:52;;;;;;;;;;;;;;;30.21;24.66;101591.59;4339162;32;20073;-70
2022/06/04 00:57:48;;;;;;;;;;;;;;;30.48;24.39;101587.38;4340315;32;21681;-70
2022/06/04 01:00:44;;;;;;;;;;;;;;;30.59;23.90;101592.19;4337431;32;20054;-70
2022/06/04 01:11:36;;;;;;;;;;;;;;;30.49;24.22;101597.66;3952975;32;15736611;-70
2022/06/04 01:14:26;;;;;;;;;;;;;;;30.49;24.22;101597.66;4430855;32;20408;-70
2022/06/04 01:25:34;;;;;;;;;;;;;;;30.57;23.43;101607.28;3953739;32;15729609;-69
2022/06/04 01:28:17;;;;;;;;;;;;;;;30.57;23.43;101607.28;4429395;32;19999;-69
2022/06/04 01:31:09;;;;;;;;;;;;;;;30.41;23.75;101617.13;4389829;32;19982;-69
2022/06/04 01:33:56;;;;;;;;;;;;;;;30.30;24.02;101607.81;4388879;32;19961;-69
2022/06/04 01:36:50;;;;;;;;;;;;;;;30.00;24.39;101607.28;4374553;32;20010;-69
2022/06/04 01:42:43;;;;;;;;;;;;;;;30.44;23.68;101606.50;4369130;32;20608;-70
2022/06/04 01:45:30;;;;;;;;;;;;;;;30.24;24.18;101598.41;4371599;32;20023;-69
2022/06/04 01:48:16;;;;;;;;;;;;;;;30.16;24.13;101600.41;4373230;32;19984;-69
2022/06/04 01:51:03;;;;;;;;;;;;;;;30.17;24.20;101602.75;4375220;32;19968;-69
2022/06/04 01:53:50;;;;;;;;;;;;;;;29.85;24.49;101599.06;4370841;32;20033;-69
2022/06/04 01:56:37;;;;;;;;;;;;;;;29.67;24.87;101594.12;4373497;32;20458;-69
2022/06/04 01:59:26;;;;;;;;;;;;;;;30.16;24.10;101591.69;4370976;32;20142;-69
2022/06/04 02:02:17;;;;;;;;;;;;;;;29.18;25.05;101589.03;4329461;33;19998;-69
2022/06/04 02:05:03;;;;;;;;;;;;;;;29.76;24.52;101584.22;4335062;33;19994;-69
2022/06/04 02:07:49;;;;;;;;;;;;;;;29.75;24.46;101573.94;4338078;33;20066;-69
2022/06/04 02:10:37;;;;;;;;;;;;;;;29.73;24.47;101565.78;4333875;32;19969;-69
2022/06/04 02:13:29;;;;;;;;;;;;;;;29.61;24.74;101569.41;4281786;33;20432;-69
2022/06/04 02:16:18;;;;;;;;;;;;;;;29.40;24.81;101566.31;4284827;33;20059;-69
2022/06/04 02:19:03;;;;;;;;;;;;;;;29.85;24.29;101561.34;4329469;33;20748;-68
2022/06/04 02:21:47;;;;;;;;;;;;;;;29.78;24.18;101572.81;4335292;33;20029;-69
2022/06/04 02:24:31;;;;;;;;;;;;;;;29.97;24.29;101565.63;4336767;33;19998;-69
2022/06/04 02:27:21;;;;;;;;;;;;;;;29.68;24.52;101580.38;4321997;33;20003;-69
2022/06/04 02:30:08;;;;;;;;;;;;;;;30.22;23.97;101575.72;4276389;33;19961;-70
2022/06/04 02:35:44;;;;;;;;;;;;;;;30.19;23.92;101576.09;3953375;32;15723402;-69
2022/06/04 02:38:34;;;;;;;;;;;;;;;30.19;23.92;101576.09;4434463;32;20306;-69
2022/06/04 02:41:20;;;;;;;;;;;;;;;30.12;23.74;101585.41;4434617;32;20017;-69
2022/06/04 02:44:04;;;;;;;;;;;;;;;29.78;23.97;101579.41;4434366;32;19984;-69
2022/06/04 02:46:56;;;;;;;;;;;;;;;29.80;24.08;101581.75;4434753;32;20414;-69
2022/06/04 02:49:44;;;;;;;;;;;;;;;29.65;24.11;101579.37;4436459;32;20497;-69
2022/06/04 02:52:31;;;;;;;;;;;;;;;29.96;23.82;101571.97;4433074;32;19967;-69
2022/06/04 02:55:18;;;;;;;;;;;;;;;29.75;24.17;101565.22;4430048;32;19961;-69
2022/06/04 02:58:07;;;;;;;;;;;;;;;29.71;24.05;101574.28;4434033;32;20039;-69
2022/06/04 03:00:52;;;;;;;;;;;;;;;29.44;24.32;101568.87;4436163;32;20425;-69
2022/06/04 03:03:37;;;;;;;;;;;;;;;29.55;24.12;101575.31;4435161;32;19992;-69
2022/06/04 03:06:26;;;;;;;;;;;;;;;29.52;24.04;101581.41;4431850;32;20022;-69
2022/06/04 03:09:21;;;;;;;;;;;;;;;29.63;23.96;101578.38;4432252;32;19977;-69
2022/06/04 03:12:06;;;;;;;;;;;;;;;29.62;23.97;101574.69;4434301;32;20024;-69
2022/06/04 03:14:50;;;;;;;;;;;;;;;29.79;23.93;101580.97;4436678;32;20061;-69
2022/06/04 03:17:16;;;;;;;;;;;;;;;30.04;23.61;101581.59;4436967;32;19990;-69
2022/06/04 03:20:04;;;;;;;;;;;;;;;29.87;23.95;101581.91;4433327;32;20018;-69
2022/06/04 03:22:49;;;;;;;;;;;;;;;30.03;23.78;101575.00;4435355;32;19985;-69
2022/06/04 03:25:34;;;;;;;;;;;;;;;29.86;24.03;101571.63;4435435;32;19991;-69
2022/06/04 03:28:19;;;;;;;;;;;;;;;29.64;23.92;101569.13;4436529;32;20385;-69
2022/06/04 03:31:13;;;;;;;;;;;;;;;29.58;24.28;101573.41;4421494;32;20008;-69
2022/06/04 03:33:57;;;;;;;;;;;;;;;29.50;24.21;101569.56;4415987;32;19976;-69
2022/06/04 03:36:41;;;;;;;;;;;;;;;29.80;23.81;101564.34;4419516;32;20011;-69
2022/06/04 03:39:25;;;;;;;;;;;;;;;29.63;24.21;101561.72;4418761;32;20095;-69
2022/06/04 03:42:09;;;;;;;;;;;;;;;28.81;25.38;101561.56;4417999;32;19972;-69
2022/06/04 03:44:54;;;;;;;;;;;;;;;29.38;24.76;101571.88;4419205;32;20039;-69
2022/06/04 03:47:57;;;;;;;;;;;;;;;29.72;24.26;101572.13;4387023;32;19960;-69
2022/06/04 03:50:44;;;;;;;;;;;;;;;29.80;24.28;101575.97;4364353;32;20010;-69
2022/06/04 03:53:41;;;;;;;;;;;;;;;30.08;23.99;101579.16;4332897;33;19963;-69
2022/06/04 03:56:28;;;;;;;;;;;;;;;29.45;24.72;101582.06;4333028;32;19993;-69
2022/06/04 03:59:14;;;;;;;;;;;;;;;29.82;24.17;101590.72;4303047;33;20003;-69
2022/06/04 04:01:58;;;;;;;;;;;;;;;29.60;24.20;101580.22;4303909;33;20051;-69
2022/06/04 04:04:48;;;;;;;;;;;;;;;29.48;24.50;101578.81;4303650;33;20504;-69
2022/06/04 04:07:35;;;;;;;;;;;;;;;29.73;24.15;101576.63;4283367;33;20015;-69
2022/06/04 04:10:04;;;;;;;;;;;;;;;29.75;24.00;101582.63;4287915;33;19960;-69
2022/06/04 04:12:48;;;;;;;;;;;;;;;29.73;23.97;101579.50;4281108;33;20139;-69
2022/06/04 04:15:32;;;;;;;;;;;;;;;29.55;24.21;101584.00;4283980;33;20421;-69
2022/06/04 04:18:05;;;;;;;;;;;;;;;29.42;24.51;101575.22;4283899;33;20007;-69
2022/06/04 04:20:41;;;;;;;;;;;;;;;29.77;23.97;101580.75;4284994;33;20011;-69
2022/06/04 04:23:30;;;;;;;;;;;;;;;29.75;24.12;101573.94;4282810;33;19953;-69
2022/06/04 04:26:17;;;;;;;;;;;;;;;29.44;24.53;101581.25;4289157;33;20331;-69
2022/06/04 04:29:01;;;;;;;;;;;;;;;29.93;23.77;101581.78;4289198;33;20437;-69
2022/06/04 04:31:46;;;;;;;;;;;;;;;30.39;23.56;101582.03;4292888;33;20291;-69
2022/06/04 04:34:20;;;;;;;;;;;;;;;30.25;23.60;101586.25;4302497;33;20050;-69
2022/06/04 04:37:11;;;;;;;;;;;;;;;29.95;24.02;101582.81;4349686;32;19966;-69
2022/06/04 04:39:55;;;;;;;;;;;;;;;30.03;23.90;101580.81;4427262;32;20360;-69
2022/06/04 04:42:58;;;;;;;;;;;;;;;30.46;23.58;101595.06;4353768;32;20016;-69
2022/06/04 04:46:04;;;;;;;;;;;;;;;30.54;23.64;101598.88;4318137;33;20043;-69
2022/06/04 04:48:51;;;;;;;;;;;;;;;30.10;23.98;101591.00;4352764;32;20002;-69
2022/06/04 04:51:36;;;;;;;;;;;;;;;30.01;24.25;101588.53;4357318;32;20434;-69
2022/06/04 04:54:21;;;;;;;;;;;;;;;29.96;24.30;101584.38;4353474;32;20010;-69
2022/06/04 04:57:12;;;;;;;;;;;;;;;29.70;24.65;101581.38;4340948;32;20010;-69
2022/06/04 05:00:07;;;;;;;;;;;;;;;29.81;24.43;101589.13;4282420;33;20150;-69
2022/06/04 05:02:53;;;;;;;;;;;;;;;30.06;24.51;101591.31;4237233;33;20013;-69
2022/06/04 05:05:23;;;;;;;;;;;;;;;30.09;24.23;101598.91;4335675;32;20007;-69
2022/06/04 05:08:08;;;;;;;;;;;;;;;30.22;24.10;101595.31;4335009;32;20104;-69
2022/06/04 05:10:56;;;;;;;;;;;;;;;30.52;23.75;101601.56;4314977;33;19967;-69
2022/06/04 05:13:23;;;;;;;;;;;;;;;30.80;23.43;101610.56;4317165;33;20347;-69
2022/06/04 05:16:07;;;;;;;;;;;;;;;30.56;23.65;101602.03;4314518;33;20681;-69
2022/06/04 05:18:51;;;;;;;;;;;;;;;30.66;23.25;101603.94;4314363;33;20203;-69
2022/06/04 05:21:47;;;;;;;;;;;;;;;30.86;23.26;101608.28;4303964;33;20412;-69
2022/06/04 05:24:37;;;;;;;;;;;;;;;30.75;23.04;101606.44;4302149;33;20018;-69
2022/06/04 05:27:26;;;;;;;;;;;;;;;30.75;23.10;101599.81;4275731;33;20020;-69
2022/06/04 05:30:30;;;;;;;;;;;;;;;30.52;23.14;101598.66;4261720;33;20013;-69
2022/06/04 05:33:20;;;;;;;;;;;;;;;30.20;23.56;101597.97;4259631;33;20645;-69
2022/06/04 05:36:05;;;;;;;;;;;;;;;30.57;23.27;101604.38;4262807;33;19967;-69
2022/06/04 05:39:09;;;;;;;;;;;;;;;30.63;23.06;101607.97;4264646;33;20935;-69
2022/06/04 05:42:04;;;;;;;;;;;;;;;30.34;23.23;101603.22;4248857;33;20288;-69
2022/06/04 05:45:08;;;;;;;;;;;;;;;30.78;22.74;101601.59;4246876;33;20349;-69
2022/06/04 05:48:12;;;;;;;;;;;;;;;30.96;22.54;101605.72;4243791;33;21139;-69
2022/06/04 05:51:03;;;;;;;;;;;;;;;30.92;22.35;101606.03;4219833;33;19958;-69
2022/06/04 05:53:49;;;;;;;;;;;;;;;30.36;22.57;101612.19;4221047;33;20009;-69
2022/06/04 05:56:41;;;;;;;;;;;;;;;31.13;21.93;101609.06;4232106;33;19957;-69
2022/06/04 05:59:26;;;;;;;;;;;;;;;31.08;21.94;101607.84;4231226;33;20115;-69
2022/06/04 06:02:17;;;;;;;;;;;;;;;31.17;21.76;101610.25;4230194;33;20001;-69
2022/06/04 06:05:14;;;;;;;;;;;;;;;30.53;22.25;101612.63;4253438;33;20000;-69
2022/06/04 06:07:45;;;;;;;;;;;;;;;30.59;22.28;101610.41;4261570;33;20012;-69
2022/06/04 06:10:39;;;;;;;;;;;;;;;31.10;22.02;101613.84;4252048;33;20081;-69
2022/06/04 06:13:23;;;;;;;;;;;;;;;30.89;22.59;101612.22;4270970;33;20286;-69
2022/06/04 06:16:11;;;;;;;;;;;;;;;30.83;22.75;101617.38;4293755;33;20410;-69
2022/06/04 06:18:58;;;;;;;;;;;;;;;31.34;22.34;101613.59;4283430;33;19952;-69
2022/06/04 06:21:43;;;;;;;;;;;;;;;31.68;21.80;101619.41;4291091;33;20038;-69
2022/06/04 06:24:29;;;;;;;;;;;;;;;31.86;21.66;101622.16;4270060;33;19971;-69
2022/06/04 06:27:14;;;;;;;;;;;;;;;32.02;21.44;101626.78;4295368;33;19952;-69
2022/06/04 06:29:59;;;;;;;;;;;;;;;32.12;21.33;101621.25;4291517;33;20212;-69
2022/06/04 06:32:43;;;;;;;;;;;;;;;31.85;21.67;101622.72;4294067;33;19991;-69
2022/06/04 06:35:34;;;;;;;;;;;;;;;31.60;22.35;101630.19;4294973;33;19995;-69
2022/06/04 06:38:18;;;;;;;;;;;;;;;31.16;22.87;101637.00;4303215;33;20268;-69
2022/06/04 06:41:02;;;;;;;;;;;;;;;31.71;22.32;101635.75;4322515;32;20037;-69
2022/06/04 06:43:49;;;;;;;;;;;;;;;31.28;22.78;101632.53;4358273;32;19957;-69
2022/06/04 06:46:53;;;;;;;;;;;;;;;31.65;22.54;101635.88;4311278;33;20026;-69
2022/06/04 06:49:21;;;;;;;;;;;;;;;31.83;22.09;101645.78;4309933;33;19998;-69
2022/06/04 06:51:58;;;;;;;;;;;;;;;31.97;22.14;101645.16;4308597;33;20297;-69
2022/06/04 06:54:48;;;;;;;;;;;;;;;31.79;22.00;101642.44;4296835;33;19975;-69
2022/06/04 06:57:32;;;;;;;;;;;;;;;31.73;22.47;101654.22;4293637;33;20188;-69
2022/06/04 07:00:16;;;;;;;;;;;;;;;31.48;22.36;101650.06;4294206;33;20146;-69
2022/06/04 07:03:10;;;;;;;;;;;;;;;31.05;22.86;101648.88;4277074;33;19979;-69
2022/06/04 07:05:55;;;;;;;;;;;;;;;31.41;22.25;101652.88;4300075;33;20011;-69
2022/06/04 07:08:42;;;;;;;;;;;;;;;31.74;21.95;101654.97;4299282;33;19985;-69
2022/06/04 07:11:26;;;;;;;;;;;;;;;31.91;21.14;101650.34;4294313;33;20331;-69
2022/06/04 07:14:22;;;;;;;;;;;;;;;31.89;21.33;101661.78;4291425;33;20343;-69
2022/06/04 07:17:17;;;;;;;;;;;;;;;31.57;21.41;101648.78;4266486;33;20395;-69
2022/06/04 07:20:08;;;;;;;;;;;;;;;31.73;21.15;101657.13;4293294;33;19974;-69
2022/06/04 07:22:58;;;;;;;;;;;;;;;31.48;21.25;101644.25;4318468;33;19999;-69
2022/06/04 07:25:44;;;;;;;;;;;;;;;31.79;20.75;101654.88;4329792;33;19973;-69
2022/06/04 07:28:37;;;;;;;;;;;;;;;31.73;20.65;101665.06;4304912;33;19951;-70
2022/06/04 07:31:23;;;;;;;;;;;;;;;31.86;20.57;101659.22;4302941;33;20379;-69
2022/06/04 07:34:07;;;;;;;;;;;;;;;31.65;20.68;101667.09;4301861;33;20025;-69
2022/06/04 07:36:58;;;;;;;;;;;;;;;31.50;20.76;101667.72;4246844;33;19975;-69
2022/06/04 07:39:44;;;;;;;;;;;;;;;31.73;20.58;101665.06;4247764;33;20667;-69
2022/06/04 07:42:29;;;;;;;;;;;;;;;31.98;20.21;101661.31;4282403;33;20007;-69
2022/06/04 07:45:15;;;;;;;;;;;;;;;32.21;19.70;101665.19;4287711;33;20051;-69
2022/06/04 07:47:50;;;;;;;;;;;;;;;32.15;19.55;101655.81;4316801;33;20260;-69
2022/06/04 07:50:19;;;;;;;;;;;;;;;31.69;20.09;101656.69;4324772;33;20305;-69
2022/06/04 07:53:06;;;;;;;;;;;;;;;32.48;19.43;101652.06;4324905;33;20006;-69
2022/06/04 07:56:08;;;;;;;;;;;;;;;32.52;19.47;101652.47;4304125;33;20053;-69
2022/06/04 07:59:13;;;;;;;;;;;;;;;32.36;19.47;101653.72;4304427;33;21203;-69
2022/06/04 08:02:05;;;;;;;;;;;;;;;32.47;19.44;101658.47;4304286;33;19959;-70
2022/06/04 08:04:53;;;;;;;;;;;;;;;32.54;19.53;101655.59;4304547;33;19944;-70
2022/06/04 08:07:39;;;;;;;;;;;;;;;32.01;20.07;101644.81;4304389;33;20057;-69
2022/06/04 08:10:24;;;;;;;;;;;;;;;32.23;19.67;101656.69;4290160;33;20050;-69
2022/06/04 08:13:23;;;;;;;;;;;;;;;32.32;19.73;101664.13;4292698;33;20364;-69
2022/06/04 08:16:04;;;;;;;;;;;;;;;32.26;19.71;101664.28;4303253;33;20015;-69
2022/06/04 08:18:55;;;;;;;;;;;;;;;32.54;19.39;101667.25;4287319;33;19959;-69
2022/06/04 08:21:40;;;;;;;;;;;;;;;32.26;19.55;101661.38;4288941;33;19974;-69
2022/06/04 08:24:22;;;;;;;;;;;;;;;32.46;19.36;101660.59;4288792;33;19960;-69
2022/06/04 08:27:08;;;;;;;;;;;;;;;32.32;19.47;101670.75;4265437;33;19969;-69
2022/06/04 08:29:38;;;;;;;;;;;;;;;32.55;19.30;101662.22;4275610;33;20003;-69
2022/06/04 08:32:36;;;;;;;;;;;;;;;32.20;19.73;101659.94;4273049;33;20035;-70
2022/06/04 08:35:20;;;;;;;;;;;;;;;32.76;19.36;101657.09;4285190;33;20074;-70
2022/06/04 08:38:18;;;;;;;;;;;;;;;33.22;18.94;101661.13;4308334;33;20352;-69
2022/06/04 08:41:17;;;;;;;;;;;;;;;33.75;18.41;101662.09;4313353;33;19951;-70
2022/06/04 08:46:35;;;;;;;;;;;;;;;34.22;18.03;101665.31;3948903;32;15870419;-69
2022/06/04 08:52:14;;;;;;;;;;;;;;;34.11;18.08;101671.53;3953209;32;15721631;-70
2022/06/04 09:00:44;;;;;;;;;;;;;;;34.51;17.84;101675.47;3953599;32;15740644;-68
2022/06/04 09:06:08;;;;;;;;;;;;;;;34.62;17.68;101675.09;3952730;32;15727504;-70
2022/06/04 09:08:55;;;;;;;;;;;;;;;34.62;17.68;101675.09;4431667;32;19969;-70
2022/06/04 09:11:33;;;;;;;;;;;;;;;34.27;17.92;101679.72;4431016;32;19949;-70
2022/06/04 09:14:39;;;;;;;;;;;;;;;33.93;18.21;101672.69;4420286;32;19954;-70
2022/06/04 09:17:20;;;;;;;;;;;;;;;34.04;18.02;101675.22;4432562;32;19993;-70
2022/06/04 09:20:40;;;;;;;;;;;;;;;33.34;18.64;101674.78;4388330;32;20014;-69
2022/06/04 09:23:41;;;;;;;;;;;;;;;33.44;18.67;101667.06;4389768;32;19959;-69
2022/06/04 09:26:44;;;;;;;;;;;;;;;33.91;18.34;101669.56;4391745;32;20060;-69
2022/06/04 09:29:31;;;;;;;;;;;;;;;34.13;18.25;101660.03;4394566;32;20053;-69
2022/06/04 09:32:27;;;;;;;;;;;;;;;34.34;17.95;101664.37;4380977;32;20014;-70
2022/06/04 09:35:23;;;;;;;;;;;;;;;34.89;17.40;101663.75;4370326;32;19997;-70
2022/06/04 09:38:23;;;;;;;;;;;;;;;34.35;17.96;101659.28;4349718;32;19975;-69
2022/06/04 09:40:58;;;;;;;;;;;;;;;34.67;17.55;101659.50;4355517;32;20010;-69
2022/06/04 09:44:09;;;;;;;;;;;;;;;34.89;17.37;101654.97;4350261;32;20067;-69
2022/06/04 09:46:59;;;;;;;;;;;;;;;34.27;17.84;101658.50;4348877;32;19943;-69
2022/06/04 09:49:55;;;;;;;;;;;;;;;35.27;17.20;101652.69;4346581;32;19963;-69
2022/06/04 09:52:43;;;;;;;;;;;;;;;35.27;17.17;101641.78;4342292;32;20045;-69
2022/06/04 09:55:44;;;;;;;;;;;;;;;34.29;18.13;101652.84;4345129;32;20006;-70
2022/06/04 09:58:39;;;;;;;;;;;;;;;35.13;17.49;101652.19;4339055;32;20082;-69
2022/06/04 10:01:27;;;;;;;;;;;;;;;35.15;17.55;101663.31;4298679;33;19996;-69
2022/06/04 10:04:14;;;;;;;;;;;;;;;35.33;17.35;101657.00;4245634;33;19950;-69
2022/06/04 10:07:17;;;;;;;;;;;;;;;35.93;16.76;101665.50;4343635;32;20278;-69
2022/06/04 10:10:24;;;;;;;;;;;;;;;36.47;16.43;101654.91;4322908;32;20005;-69
2022/06/04 10:13:46;;;;;;;;;;;;;;;35.87;16.66;101647.37;4345860;32;20163;-69
2022/06/04 10:16:22;;;;;;;;;;;;;;;35.89;16.87;101665.13;4304118;33;19956;-69
2022/06/04 10:19:17;;;;;;;;;;;;;;;35.86;16.93;101657.53;4225984;33;20003;-69
2022/06/04 10:22:04;;;;;;;;;;;;;;;35.99;16.75;101659.41;4262024;33;20004;-69
2022/06/04 10:24:53;;;;;;;;;;;;;;;36.30;16.50;101657.81;4251778;33;20032;-69
2022/06/04 10:27:58;;;;;;;;;;;;;;;35.46;17.26;101659.69;4252258;33;19957;-69
2022/06/04 10:33:40;;;;;;;;;;;;;;;35.36;17.35;101647.03;3954089;32;15730621;-70
2022/06/04 10:39:25;;;;;;;;;;;;;;;35.33;17.32;101651.16;3952492;32;15734447;-70
2022/06/04 10:42:36;;;;;;;;;;;;;;;35.33;17.32;101651.16;4426104;32;20477;-70
2022/06/04 10:45:27;;;;;;;;;;;;;;;35.30;17.46;101657.37;4423207;32;20466;-69
2022/06/04 10:51:28;;;;;;;;;;;;;;;36.18;16.42;101668.44;3952823;32;15765626;-70
2022/06/04 10:54:05;;;;;;;;;;;;;;;36.18;16.42;101668.44;4429484;32;20252;-70
2022/06/04 10:56:54;;;;;;;;;;;;;;;35.62;16.85;101655.28;4427719;32;20384;-70
2022/06/04 10:59:43;;;;;;;;;;;;;;;36.17;16.69;101669.81;4375454;32;20040;-70
2022/06/04 11:07:59;;;;;;;;;;;;;;;34.66;17.82;101668.84;3952750;32;15723559;-70
2022/06/04 11:10:52;;;;;;;;;;;;;;;34.66;17.82;101668.84;4393328;32;20005;-70
2022/06/04 11:13:41;;;;;;;;;;;;;;;33.60;18.74;101673.75;4357514;32;20000;-70
2022/06/04 11:16:39;;;;;;;;;;;;;;;32.72;19.73;101664.66;4312451;33;20019;-70
2022/06/04 11:19:38;;;;;;;;;;;;;;;33.37;19.22;101669.97;4311001;32;20653;-70
2022/06/04 11:22:31;;;;;;;;;;;;;;;33.41;19.26;101679.88;4313587;33;19987;-70
2022/06/04 11:25:27;;;;;;;;;;;;;;;33.76;18.99;101679.03;4310476;33;20094;-70
2022/06/04 11:28:31;;;;;;;;;;;;;;;33.80;19.17;101685.28;4311642;33;20432;-70
2022/06/04 11:34:12;;;;;;;;;;;;;;;33.48;19.68;101678.38;3967294;31;15721301;-69
2022/06/04 11:40:00;;;;;;;;;;;;;;;33.62;19.78;101686.38;3963405;31;15716474;-69
2022/06/04 11:42:58;;;;;;;;;;;;;;;33.62;19.78;101686.38;4426978;32;19979;-69
2022/06/04 11:48:49;;;;;;;;;;;;;;;33.28;19.99;101676.31;3954400;32;15728375;-70
2022/06/04 11:51:55;;;;;;;;;;;;;;;33.17;20.23;101682.47;4420210;32;20425;-69
2022/06/04 11:54:59;;;;;;;;;;;;;;;33.69;19.77;101670.25;4429219;32;20012;-69
2022/06/04 11:57:53;;;;;;;;;;;;;;;33.96;19.46;101662.78;4432497;32;20106;-69
2022/06/04 12:00:40;;;;;;;;;;;;;;;34.42;19.19;101671.00;4422700;32;20449;-70
2022/06/04 12:08:55;;;;;;;;;;;;;;;34.82;18.93;101659.47;3952862;32;15722522;-70
2022/06/04 12:11:32;;;;;;;;;;;;;;;34.82;18.93;101659.47;4427328;32;19964;-69
2022/06/04 12:17:16;;;;;;;;;;;;;;;34.55;19.45;101646.63;3953156;32;15723025;-69
2022/06/04 12:26:01;;;;;;;;;;;;;;;34.48;19.43;101658.34;4432475;32;19999;-70
2022/06/04 12:31:03;;;;;;;;;;;;;;;34.33;19.53;101645.25;3964025;31;15720978;-70
2022/06/04 12:33:50;;;;;;;;;;;;;;;34.33;19.53;101645.25;4453254;32;19949;-69
2022/06/04 12:36:49;;;;;;;;;;;;;;;34.53;19.22;101646.44;4450091;32;21201;-69
2022/06/04 12:42:11;;;;;;;;;;;;;;;35.05;19.08;101651.44;3952830;32;15724597;-69
2022/06/04 12:45:00;;;;;;;;;;;;;;;35.05;19.08;101651.44;4380889;32;19986;-69
2022/06/04 12:47:54;;;;;;;;;;;;;;;34.90;19.13;101647.75;4388002;32;20248;-69
2022/06/04 12:50:47;;;;;;;;;;;;;;;35.35;18.79;101650.56;4386785;32;19965;-69
2022/06/04 12:53:55;;;;;;;;;;;;;;;35.04;19.02;101649.88;4387390;32;20310;-70
2022/06/04 12:56:25;;;;;;;;;;;;;;;35.05;18.93;101647.72;4387412;32;20002;-70
2022/06/04 12:58:54;;;;;;;;;;;;;;;35.05;18.77;101654.34;4390853;32;19969;-70
2022/06/04 13:01:51;;;;;;;;;;;;;;;35.35;18.59;101650.56;4386544;32;20322;-70
2022/06/04 13:04:36;;;;;;;;;;;;;;;35.99;18.08;101660.16;4386458;32;20027;-70
2022/06/04 13:07:25;;;;;;;;;;;;;;;36.25;17.75;101650.00;4389196;32;19954;-70
2022/06/04 13:10:20;;;;;;;;;;;;;;;36.22;17.48;101649.06;4384462;32;19989;-70
2022/06/04 13:16:04;;;;;;;;;;;;;;;36.42;17.17;101650.09;3953451;32;15722548;-69
2022/06/04 13:19:05;;;;;;;;;;;;;;;36.42;17.17;101650.09;4434222;32;19950;-69
2022/06/04 13:21:58;;;;;;;;;;;;;;;36.59;16.97;101649.34;4433169;32;20045;-69
2022/06/04 13:24:44;;;;;;;;;;;;;;;37.02;16.48;101657.53;4423774;32;20402;-69
2022/06/04 13:27:51;;;;;;;;;;;;;;;36.85;16.35;101657.53;4435691;32;19992;-69
2022/06/04 13:30:49;;;;;;;;;;;;;;;36.44;16.90;101653.19;4436264;32;20434;-69
2022/06/04 13:33:47;;;;;;;;;;;;;;;36.60;16.67;101653.84;4435330;32;20343;-69
2022/06/04 13:36:22;;;;;;;;;;;;;;;36.16;17.05;101651.44;4432330;32;20399;-69
2022/06/04 13:39:12;;;;;;;;;;;;;;;35.77;17.44;101649.34;4429844;32;20101;-69
2022/06/04 13:42:12;;;;;;;;;;;;;;;35.28;17.99;101645.50;4397332;32;19969;-69
2022/06/04 13:44:56;;;;;;;;;;;;;;;35.86;17.61;101642.12;4436235;32;19995;-70
2022/06/04 13:47:52;;;;;;;;;;;;;;;35.59;17.86;101635.97;4435815;32;19969;-69
2022/06/04 13:50:49;;;;;;;;;;;;;;;36.04;17.33;101629.84;4392859;32;20013;-69
2022/06/04 13:53:32;;;;;;;;;;;;;;;35.81;17.47;101640.97;4380534;32;19966;-69
2022/06/04 13:56:03;;;;;;;;;;;;;;;36.27;16.98;101635.53;4391409;32;19996;-69
2022/06/04 13:58:32;;;;;;;;;;;;;;;35.99;17.42;101642.59;4396396;32;19955;-69
2022/06/04 14:01:20;;;;;;;;;;;;;;;36.30;17.17;101636.50;4410018;32;20263;-69
2022/06/04 14:07:30;;;;;;;;;;;;;;;36.08;17.49;101626.53;4430521;32;20614;-68
2022/06/04 14:18:20;;;;;;;;;;;;;;;35.37;17.75;101616.37;3953862;32;15727576;-70
2022/06/04 14:29:02;;;;;;;;;;;;;;;36.40;16.86;101611.78;3954310;32;15723597;-69
2022/06/04 14:34:34;;;;;;;;;;;;;;;35.68;17.49;101608.22;3972228;32;15740591;-70
2022/06/04 14:37:40;;;;;;;;;;;;;;;35.68;17.49;101608.22;4449837;32;20037;-70
2022/06/04 14:40:37;;;;;;;;;;;;;;;34.34;18.61;101614.69;4404659;32;19978;-70
2022/06/04 14:43:17;;;;;;;;;;;;;;;34.72;18.36;101608.78;4404681;32;20052;-70
2022/06/04 14:51:52;;;;;;;;;;;;;;;34.63;18.59;101583.06;3939181;32;15722389;-69
2022/06/04 14:54:45;;;;;;;;;;;;;;;34.63;18.59;101583.06;4386152;32;20019;-69
2022/06/04 15:00:25;;;;;;;;;;;;;;;36.54;16.29;101580.78;3953813;32;15727445;-70
2022/06/04 15:08:43;;;;;;;;;;;;;;;37.01;16.15;101559.91;3929685;32;15726552;-70
2022/06/04 15:19:36;;;;;;;;;;;;;;;37.06;15.79;101566.88;3967843;31;15717327;-69
2022/06/04 15:25:11;;;;;;;;;;;;;;;37.63;15.40;101561.38;3953367;32;15727451;-70
2022/06/04 15:27:58;;;;;;;;;;;;;;;37.63;15.40;101561.38;4435160;32;20000;-69
2022/06/04 15:34:12;;;;;;;;;;;;;;;37.16;15.89;101559.69;4358698;32;20009;-70
2022/06/04 15:37:00;;;;;;;;;;;;;;;37.63;15.60;101568.03;4364986;32;20489;-70
2022/06/04 15:39:31;;;;;;;;;;;;;;;37.49;15.59;101569.06;4363658;32;20010;-69
2022/06/04 15:42:19;;;;;;;;;;;;;;;37.15;15.99;101566.19;4392674;32;20007;-69
2022/06/04 15:45:00;;;;;;;;;;;;;;;37.48;15.60;101573.34;4392000;32;20014;-69
2022/06/04 15:47:30;;;;;;;;;;;;;;;37.51;15.52;101561.16;4394132;32;19958;-69
2022/06/04 15:56:52;;;;;;;;;;;;;;;36.86;15.96;101554.22;4385086;32;20028;-70
2022/06/04 15:59:44;;;;;;;;;;;;;;;36.84;15.93;101548.16;4369503;32;20044;-69
2022/06/04 16:02:32;;;;;;;;;;;;;;;35.99;16.85;101542.94;4367425;32;20018;-69
2022/06/04 16:21:23;;;;;;;;;;;;;;;33.96;18.79;101545.94;3917394;32;15726478;-70
2022/06/04 16:24:10;;;;;;;;;;;;;;;33.96;18.79;101545.94;4400136;32;19992;-70
2022/06/04 16:26:55;;;;;;;;;;;;;;;32.94;19.67;101539.44;4397701;32;19988;-70
2022/06/04 16:29:42;;;;;;;;;;;;;;;32.74;19.96;101537.38;4401204;32;20344;-70
2022/06/04 16:32:15;;;;;;;;;;;;;;;32.80;19.80;101532.16;4398890;32;19989;-70
2022/06/04 16:35:13;;;;;;;;;;;;;;;32.22;20.37;101526.16;4402820;32;19964;-70
2022/06/04 16:38:03;;;;;;;;;;;;;;;31.96;20.67;101535.88;4359289;32;20021;-70
2022/06/04 16:43:39;;;;;;;;;;;;;;;32.57;20.23;101537.09;4356810;32;20002;-70
2022/06/04 16:46:54;;;;;;;;;;;;;;;32.73;19.96;101537.97;4353521;32;20010;-70
2022/06/04 16:49:55;;;;;;;;;;;;;;;32.60;20.09;101527.19;4359742;32;19979;-70
2022/06/04 16:52:33;;;;;;;;;;;;;;;33.03;19.69;101532.25;4358197;32;19975;-70
2022/06/04 16:55:10;;;;;;;;;;;;;;;33.34;19.43;101534.69;4358930;32;20467;-70
2022/06/04 16:57:55;;;;;;;;;;;;;;;33.03;19.61;101538.09;4357129;32;20450;-70
2022/06/04 17:01:00;;;;;;;;;;;;;;;32.92;19.72;101535.53;4360259;32;20014;-70
2022/06/04 17:03:45;;;;;;;;;;;;;;;33.36;19.31;101532.00;4357062;32;20002;-70